Terminal Aerodrome Forecast
Issued by NWS

Home | Current Version | Previous Version | Graphics & Text | Print | Product List | Glossary On
Versions: 1 2 3 4 5 6 7 8 9 10 11 12 13
476
FTUS41 KCLE 201743
TAFFDY
TAF
KFDY 201743Z 2018/2118 23015G25KT P6SM VCTS SCT040CB BKN060
     FM202000 25015G25KT 6SM -SHRA VCTS BKN045CB
      TEMPO 2020/2024 25020G40KT 2SM TSRA OVC018CB
     FM210100 27015G22KT P6SM BKN030
     FM210500 26012KT P6SM BKN028=

USA.gov is the U.S. government's official web portal to all federal, state and local government web resources and services.